Time;durP1;ratioP1;P1;durP2;ratioP2;P2;SDS_P1;SDS_P2;PMS_P1;PMS_P2;Temp;Humidity;BMP_temperature;BMP_pressure;BME280_temperature;BME280_humidity;BME280_pressure;Samples;Min_cycle;Max_cycle;Signal;HPM_P1;HPM_P2
2023/12/24 00:00:27;;;;;;;4.07;3.42;;;;;;;;;;5061743;22;20046;-74
2023/12/24 00:02:53;;;;;;;3.60;2.83;;;;;;;;;;5022092;28;20483;-74
2023/12/24 00:05:18;;;;;;;4.50;2.85;;;;;;;;;;5022043;28;20029;-75
2023/12/24 00:07:43;;;;;;;3.42;3.08;;;;;;;;;;5040113;28;20025;-74
2023/12/24 00:10:09;;;;;;;3.85;3.15;;;;;;;;;;5039977;28;20412;-75
2023/12/24 00:12:37;;;;;;;3.17;2.75;;;;;;;;;;5039971;28;20032;-75
2023/12/24 00:15:03;;;;;;;4.15;3.17;;;;;;;;;;5039738;28;20038;-75
2023/12/24 00:17:34;;;;;;;4.40;2.83;;;;;;;;;;5005578;28;20029;-74
2023/12/24 00:19:59;;;;;;;3.55;2.65;;;;;;;;;;5039850;28;20041;-75
2023/12/24 00:22:27;;;;;;;6.13;3.55;;;;;;;;;;5021897;28;20353;-75
2023/12/24 00:24:53;;;;;;;4.70;3.30;;;;;;;;;;5040269;28;20056;-75
2023/12/24 00:27:18;;;;;;;4.82;3.00;;;;;;;;;;5040128;28;20057;-76
2023/12/24 00:29:43;;;;;;;5.22;2.90;;;;;;;;;;5039840;28;20063;-76
2023/12/24 00:32:09;;;;;;;5.55;3.42;;;;;;;;;;5021992;28;20057;-78
2023/12/24 00:34:34;;;;;;;3.65;3.22;;;;;;;;;;5018302;28;20136;-74
2023/12/24 00:36:59;;;;;;;4.38;3.13;;;;;;;;;;5036975;28;20095;-81
2023/12/24 00:39:25;;;;;;;3.80;3.08;;;;;;;;;;5018439;28;20084;-82
2023/12/24 00:41:50;;;;;;;4.40;3.20;;;;;;;;;;5019274;28;20033;-81
2023/12/24 00:44:16;;;;;;;4.68;3.33;;;;;;;;;;5018739;28;20383;-80
2023/12/24 00:46:41;;;;;;;3.55;3.15;;;;;;;;;;5002160;28;20431;-81
2023/12/24 00:49:06;;;;;;;4.55;3.33;;;;;;;;;;5036461;28;20537;-80
2023/12/24 00:51:32;;;;;;;3.00;2.70;;;;;;;;;;5018420;28;20030;-81
2023/12/24 00:53:57;;;;;;;4.20;3.20;;;;;;;;;;5002098;28;20037;-72
2023/12/24 00:56:23;;;;;;;4.03;2.78;;;;;;;;;;5018846;28;20474;-74
2023/12/24 00:58:48;;;;;;;2.97;2.58;;;;;;;;;;5018435;28;20348;-73
2023/12/24 01:01:13;;;;;;;5.35;3.15;;;;;;;;;;5037908;22;20412;-74
2023/12/24 01:03:39;;;;;;;5.45;3.05;;;;;;;;;;5057994;22;20507;-73
2023/12/24 01:06:04;;;;;;;3.10;2.80;;;;;;;;;;5037619;28;20089;-73
2023/12/24 01:08:30;;;;;;;3.47;2.70;;;;;;;;;;5038293;28;20429;-73
2023/12/24 01:10:56;;;;;;;3.67;2.80;;;;;;;;;;5056230;28;20039;-73
2023/12/24 01:13:23;;;;;;;3.42;2.75;;;;;;;;;;5060143;23;20049;-74
2023/12/24 01:19:04;;;;;;;2.88;2.33;;;;;;;;;;4799337;26;20476;-79
2023/12/24 01:21:30;;;;;;;2.70;2.40;;;;;;;;;;5035024;28;20025;-79
2023/12/24 01:23:55;;;;;;;2.42;2.00;;;;;;;;;;5034301;28;20087;-79
2023/12/24 01:26:20;;;;;;;4.10;2.50;;;;;;;;;;5034319;28;20030;-79
2023/12/24 01:28:46;;;;;;;2.92;2.20;;;;;;;;;;5035397;28;20020;-80
2023/12/24 01:31:11;;;;;;;2.53;2.05;;;;;;;;;;5035430;28;20061;-79
2023/12/24 01:33:36;;;;;;;2.63;2.13;;;;;;;;;;5017646;28;20067;-80
2023/12/24 01:36:03;;;;;;;4.47;2.35;;;;;;;;;;5035532;28;20107;-80
2023/12/24 01:38:29;;;;;;;2.42;2.15;;;;;;;;;;5035237;28;20475;-80
2023/12/24 01:40:54;;;;;;;3.25;1.80;;;;;;;;;;5034072;28;20060;-80
2023/12/24 01:43:20;;;;;;;2.72;1.90;;;;;;;;;;5035618;28;20503;-81
2023/12/24 01:45:45;;;;;;;2.67;1.65;;;;;;;;;;5034085;28;20468;-79
2023/12/24 01:48:13;;;;;;;1.77;1.67;;;;;;;;;;5017311;28;20479;-79
2023/12/24 01:50:38;;;;;;;2.67;1.98;;;;;;;;;;5033726;28;20029;-75
2023/12/24 01:53:04;;;;;;;3.50;2.15;;;;;;;;;;5017205;28;20076;-74
2023/12/24 01:55:30;;;;;;;2.47;1.85;;;;;;;;;;5034916;28;20087;-75
2023/12/24 01:57:56;;;;;;;2.67;2.10;;;;;;;;;;5033610;28;20029;-73
2023/12/24 02:00:21;;;;;;;2.20;1.95;;;;;;;;;;5033460;28;20132;-74
2023/12/24 02:02:47;;;;;;;2.22;2.00;;;;;;;;;;5017056;28;20022;-73
2023/12/24 02:05:13;;;;;;;2.33;2.13;;;;;;;;;;5033418;28;20029;-73
2023/12/24 02:07:39;;;;;;;2.33;1.88;;;;;;;;;;5033412;28;20419;-73
2023/12/24 02:10:05;;;;;;;2.38;1.83;;;;;;;;;;5034701;28;20104;-73
2023/12/24 02:12:31;;;;;;;2.80;2.10;;;;;;;;;;5033308;28;20116;-73
2023/12/24 02:14:56;;;;;;;2.72;2.17;;;;;;;;;;5033271;28;20542;-73
2023/12/24 02:17:22;;;;;;;2.28;2.08;;;;;;;;;;5034334;28;20049;-74
2023/12/24 02:19:48;;;;;;;2.05;1.83;;;;;;;;;;5033182;28;20033;-74
2023/12/24 02:22:13;;;;;;;1.85;1.73;;;;;;;;;;5034598;28;20487;-73
2023/12/24 02:24:39;;;;;;;2.25;1.90;;;;;;;;;;5033100;28;20547;-74
2023/12/24 02:27:27;;;;;;;2.17;1.98;;;;;;;;;;5016643;28;20034;-74
2023/12/24 02:29:56;;;;;;;1.83;1.10;;;;;;;;;;5034721;28;20036;-74
2023/12/24 02:32:22;;;;;;;1.77;1.60;;;;;;;;;;5034321;28;20489;-74
2023/12/24 02:34:48;;;;;;;2.15;1.95;;;;;;;;;;5016665;28;20036;-74
2023/12/24 02:37:14;;;;;;;1.83;1.73;;;;;;;;;;5034662;28;20423;-74
2023/12/24 02:39:41;;;;;;;1.38;1.27;;;;;;;;;;5034099;28;20025;-74
2023/12/24 02:42:08;;;;;;;1.88;1.20;;;;;;;;;;5034158;28;20033;-74
2023/12/24 02:44:35;;;;;;;2.97;1.80;;;;;;;;;;5034448;28;20021;-74
2023/12/24 02:47:00;;;;;;;1.98;1.77;;;;;;;;;;5033455;28;20033;-75
2023/12/24 02:49:26;;;;;;;3.35;1.67;;;;;;;;;;5033985;28;20029;-77
2023/12/24 02:51:51;;;;;;;2.95;1.48;;;;;;;;;;5032714;28;20033;-77
2023/12/24 02:54:16;;;;;;;2.22;1.30;;;;;;;;;;5032859;28;20014;-77
2023/12/24 02:56:42;;;;;;;2.15;1.23;;;;;;;;;;5033588;28;20055;-77
2023/12/24 02:59:07;;;;;;;2.42;1.58;;;;;;;;;;5032965;28;20033;-78
2023/12/24 03:01:35;;;;;;;3.13;1.58;;;;;;;;;;5016151;28;20079;-77
2023/12/24 03:04:02;;;;;;;2.47;1.30;;;;;;;;;;5032528;28;20517;-74
2023/12/24 03:06:27;;;;;;;2.03;1.33;;;;;;;;;;5016090;28;20033;-74
2023/12/24 03:08:53;;;;;;;2.00;1.00;;;;;;;;;;5034016;28;20028;-74
2023/12/24 03:11:18;;;;;;;2.53;1.50;;;;;;;;;;5033700;28;20023;-74
2023/12/24 03:13:43;;;;;;;3.40;1.58;;;;;;;;;;5032618;28;20030;-75
2023/12/24 03:16:11;;;;;;;2.05;1.33;;;;;;;;;;5032909;28;20108;-74
2023/12/24 03:18:36;;;;;;;1.90;1.33;;;;;;;;;;5033911;28;20049;-74
2023/12/24 03:21:02;;;;;;;1.58;1.48;;;;;;;;;;5034211;28;20038;-74
2023/12/24 03:23:27;;;;;;;1.70;1.60;;;;;;;;;;5037215;22;20056;-73
2023/12/24 03:25:53;;;;;;;2.00;1.58;;;;;;;;;;5038909;28;20033;-73
2023/12/24 03:28:19;;;;;;;2.60;1.80;;;;;;;;;;5072193;28;20039;-74
2023/12/24 03:30:45;;;;;;;2.05;1.63;;;;;;;;;;5072286;28;20029;-73
2023/12/24 03:33:10;;;;;;;1.83;1.60;;;;;;;;;;5039101;28;20070;-73
2023/12/24 03:35:36;;;;;;;2.38;1.27;;;;;;;;;;5086731;22;20094;-73
2023/12/24 03:41:11;;;;;;;2.08;1.48;;;;;;;;;;5031718;28;20100;-77
2023/12/24 03:43:37;;;;;;;1.98;1.75;;;;;;;;;;5032177;28;20025;-77
2023/12/24 03:46:03;;;;;;;2.58;1.73;;;;;;;;;;5032283;28;20092;-77
2023/12/24 03:48:29;;;;;;;2.17;1.88;;;;;;;;;;5015651;28;20025;-77
2023/12/24 03:50:55;;;;;;;4.32;2.05;;;;;;;;;;5033336;28;20109;-76
2023/12/24 03:53:20;;;;;;;2.97;2.15;;;;;;;;;;5033310;28;20053;-76
2023/12/24 03:55:47;;;;;;;4.28;2.08;;;;;;;;;;5015670;28;20470;-76
2023/12/24 03:58:12;;;;;;;3.15;1.88;;;;;;;;;;5015578;28;20464;-78
2023/12/24 04:00:37;;;;;;;2.60;2.08;;;;;;;;;;5015411;28;20032;-73
2023/12/24 04:03:03;;;;;;;2.58;1.98;;;;;;;;;;5033502;28;20045;-73
2023/12/24 04:05:28;;;;;;;3.42;2.67;;;;;;;;;;5032059;28;20159;-73
2023/12/24 04:07:54;;;;;;;4.20;2.70;;;;;;;;;;5015709;28;20044;-73
2023/12/24 04:10:19;;;;;;;6.32;3.55;;;;;;;;;;5036883;28;20033;-73
2023/12/24 04:12:45;;;;;;;4.15;2.40;;;;;;;;;;5035575;28;20104;-73
2023/12/24 04:15:11;;;;;;;3.13;2.38;;;;;;;;;;5035546;28;20033;-73
2023/12/24 04:17:36;;;;;;;6.22;3.10;;;;;;;;;;5035441;28;20099;-74
2023/12/24 04:20:03;;;;;;;6.72;3.03;;;;;;;;;;5018892;28;20120;-73
2023/12/24 04:22:30;;;;;;;7.18;3.45;;;;;;;;;;5018926;28;20022;-73
2023/12/24 04:24:55;;;;;;;9.80;3.67;;;;;;;;;;5036609;28;20056;-74
2023/12/24 04:27:21;;;;;;;8.57;4.53;;;;;;;;;;5035317;28;20026;-74
2023/12/24 04:29:46;;;;;;;11.07;5.05;;;;;;;;;;5018904;28;20036;-74
2023/12/24 04:32:16;;;;;;;10.32;4.78;;;;;;;;;;5035218;28;20041;-72
2023/12/24 04:34:42;;;;;;;9.43;4.78;;;;;;;;;;5002401;28;20129;-78
2023/12/24 04:37:08;;;;;;;11.02;4.60;;;;;;;;;;5036495;28;20064;-79
2023/12/24 04:39:33;;;;;;;8.32;3.22;;;;;;;;;;5015065;28;20041;-78
2023/12/24 04:41:59;;;;;;;6.72;3.28;;;;;;;;;;5015291;28;20032;-74
2023/12/24 04:44:24;;;;;;;5.57;3.00;;;;;;;;;;5015709;28;20061;-74
2023/12/24 04:47:10;;;;;;;6.55;2.78;;;;;;;;;;5016647;28;20030;-73
2023/12/24 04:49:37;;;;;;;6.10;2.58;;;;;;;;;;5015184;28;20066;-73
2023/12/24 04:52:03;;;;;;;6.15;2.67;;;;;;;;;;5015108;28;20029;-73
2023/12/24 04:54:29;;;;;;;4.40;1.98;;;;;;;;;;5015029;28;20571;-68
2023/12/24 04:56:54;;;;;;;5.65;2.30;;;;;;;;;;5015008;28;20112;-73
2023/12/24 04:59:20;;;;;;;5.18;2.22;;;;;;;;;;5016212;28;20065;-73
2023/12/24 05:01:45;;;;;;;3.40;1.63;;;;;;;;;;5014892;28;20113;-75
2023/12/24 05:04:11;;;;;;;4.85;2.30;;;;;;;;;;5014895;28;20065;-74
2023/12/24 05:06:37;;;;;;;3.65;1.83;;;;;;;;;;4998483;28;20030;-74
2023/12/24 05:09:03;;;;;;;5.20;2.25;;;;;;;;;;5014799;28;20141;-75
2023/12/24 05:11:28;;;;;;;4.03;1.90;;;;;;;;;;4998326;28;20109;-73
2023/12/24 05:13:54;;;;;;;3.58;2.00;;;;;;;;;;5014631;28;20084;-75
2023/12/24 05:16:19;;;;;;;2.17;1.52;;;;;;;;;;5014694;28;20018;-74
2023/12/24 05:18:45;;;;;;;2.53;1.80;;;;;;;;;;5014292;28;20025;-75
2023/12/24 05:21:10;;;;;;;2.58;1.75;;;;;;;;;;5014471;28;20025;-75
2023/12/24 05:23:35;;;;;;;2.33;1.40;;;;;;;;;;5016160;28;20079;-74
2023/12/24 05:26:01;;;;;;;1.80;1.65;;;;;;;;;;5015822;28;20037;-72
2023/12/24 05:28:26;;;;;;;1.92;1.80;;;;;;;;;;5015718;28;20014;-72
2023/12/24 05:30:52;;;;;;;1.73;1.63;;;;;;;;;;5015634;28;20038;-73
2023/12/24 05:33:17;;;;;;;2.60;1.33;;;;;;;;;;5015658;28;20096;-74
2023/12/24 05:35:42;;;;;;;1.95;1.58;;;;;;;;;;5015809;28;20388;-73
2023/12/24 05:38:08;;;;;;;1.58;1.48;;;;;;;;;;5014476;28;20120;-73
2023/12/24 05:40:33;;;;;;;2.60;1.98;;;;;;;;;;5029514;28;20037;-73
2023/12/24 05:42:58;;;;;;;2.35;1.88;;;;;;;;;;5034223;28;20026;-73
2023/12/24 05:45:24;;;;;;;2.53;1.83;;;;;;;;;;5036476;28;20388;-76
2023/12/24 05:47:50;;;;;;;2.92;1.92;;;;;;;;;;5034188;28;20109;-79
2023/12/24 05:50:16;;;;;;;3.53;2.45;;;;;;;;;;5017716;28;20369;-79
2023/12/24 05:52:41;;;;;;;3.72;2.60;;;;;;;;;;5035024;28;20083;-79
2023/12/24 05:55:07;;;;;;;4.88;2.75;;;;;;;;;;5034964;28;20041;-77
2023/12/24 05:57:34;;;;;;;4.03;2.90;;;;;;;;;;5071353;22;20410;-77
2023/12/24 06:00:32;;;;;;;4.88;3.78;;;;;;;;;;5087288;22;20045;-73
2023/12/24 06:02:57;;;;;;;4.35;2.80;;;;;;;;;;5056863;28;20104;-75
2023/12/24 06:05:23;;;;;;;6.10;3.25;;;;;;;;;;5074641;28;20060;-74
2023/12/24 06:07:48;;;;;;;5.60;3.55;;;;;;;;;;5074735;28;20035;-75
2023/12/24 06:10:14;;;;;;;5.40;2.83;;;;;;;;;;5074591;28;20086;-76
2023/12/24 06:12:40;;;;;;;4.82;2.53;;;;;;;;;;5073183;28;20493;-76
2023/12/24 06:15:06;;;;;;;4.55;2.95;;;;;;;;;;5056254;28;20028;-76
2023/12/24 06:17:31;;;;;;;4.13;2.67;;;;;;;;;;5073383;28;20083;-77
2023/12/24 06:19:56;;;;;;;3.20;2.90;;;;;;;;;;5038719;28;20127;-76
2023/12/24 06:22:22;;;;;;;3.75;2.78;;;;;;;;;;5073284;28;20112;-76
2023/12/24 06:24:47;;;;;;;5.68;4.00;;;;;;;;;;5055337;28;20052;-76
2023/12/24 06:27:12;;;;;;;4.70;3.13;;;;;;;;;;5055510;28;20036;-75
2023/12/24 06:29:38;;;;;;;4.70;3.15;;;;;;;;;;5073206;28;20036;-75
2023/12/24 06:32:04;;;;;;;3.60;2.92;;;;;;;;;;5072521;28;20138;-77
2023/12/24 06:34:30;;;;;;;4.70;3.17;;;;;;;;;;5055457;28;20256;-77
2023/12/24 06:36:55;;;;;;;3.95;2.60;;;;;;;;;;5055362;28;20037;-76
2023/12/24 06:39:20;;;;;;;4.22;2.65;;;;;;;;;;5073242;28;20115;-75
2023/12/24 06:41:47;;;;;;;4.53;2.78;;;;;;;;;;5072882;28;20119;-74
2023/12/24 06:44:13;;;;;;;4.35;3.25;;;;;;;;;;5072897;28;20081;-74
2023/12/24 06:46:39;;;;;;;3.60;2.83;;;;;;;;;;5072793;28;20028;-74
2023/12/24 06:49:04;;;;;;;4.90;3.03;;;;;;;;;;5072919;28;20115;-74
2023/12/24 06:51:29;;;;;;;3.30;3.05;;;;;;;;;;5073105;28;20028;-74
2023/12/24 06:53:55;;;;;;;2.72;2.45;;;;;;;;;;5054949;28;20114;-75
2023/12/24 06:56:20;;;;;;;3.10;2.80;;;;;;;;;;5038167;28;20052;-75
2023/12/24 06:58:45;;;;;;;4.30;3.72;;;;;;;;;;5073645;28;20036;-76
2023/12/24 07:01:11;;;;;;;5.40;3.97;;;;;;;;;;5055381;28;20124;-75
2023/12/24 07:03:37;;;;;;;5.68;3.55;;;;;;;;;;5072262;28;20443;-74
2023/12/24 07:06:02;;;;;;;4.10;3.38;;;;;;;;;;5073623;28;20020;-75
2023/12/24 07:08:32;;;;;;;3.58;3.28;;;;;;;;;;5056259;28;20446;-74
2023/12/24 07:10:57;;;;;;;4.72;3.17;;;;;;;;;;5073775;28;20139;-73
2023/12/24 07:13:24;;;;;;;4.50;3.85;;;;;;;;;;5072259;28;20454;-73
2023/12/24 07:15:49;;;;;;;7.28;5.43;;;;;;;;;;5072822;28;20037;-73
2023/12/24 07:18:17;;;;;;;5.40;4.70;;;;;;;;;;5072802;28;20043;-74
2023/12/24 07:20:43;;;;;;;4.63;4.22;;;;;;;;;;5073779;28;20060;-73
2023/12/24 07:23:08;;;;;;;4.35;3.92;;;;;;;;;;5073706;28;20031;-75
2023/12/24 07:25:33;;;;;;;4.72;4.28;;;;;;;;;;5073423;28;20017;-73
2023/12/24 07:27:59;;;;;;;4.65;3.92;;;;;;;;;;5073460;28;20421;-76
2023/12/24 07:30:24;;;;;;;6.10;3.80;;;;;;;;;;5073525;28;20419;-77
2023/12/24 07:32:50;;;;;;;4.63;4.15;;;;;;;;;;5055242;28;20036;-73
2023/12/24 07:35:16;;;;;;;4.45;3.97;;;;;;;;;;5072949;28;20028;-77
2023/12/24 07:37:42;;;;;;;5.32;3.28;;;;;;;;;;5055785;28;20386;-71
2023/12/24 07:40:10;;;;;;;2.70;2.50;;;;;;;;;;5073216;28;20032;-71
2023/12/24 07:42:37;;;;;;;3.65;3.00;;;;;;;;;;5074833;28;20094;-71
2023/12/24 07:45:05;;;;;;;3.55;2.90;;;;;;;;;;5059064;28;20039;-71
2023/12/24 07:47:31;;;;;;;3.17;2.53;;;;;;;;;;5077314;28;20101;-71
2023/12/24 07:49:57;;;;;;;2.78;2.58;;;;;;;;;;5077332;28;20028;-71
2023/12/24 07:52:22;;;;;;;2.70;2.50;;;;;;;;;;5059478;28;20517;-71
2023/12/24 07:54:48;;;;;;;2.22;2.05;;;;;;;;;;5042302;28;20040;-71
2023/12/24 07:57:13;;;;;;;2.25;2.05;;;;;;;;;;5059388;28;20119;-75
2023/12/24 07:59:39;;;;;;;2.30;2.20;;;;;;;;;;5059153;28;20048;-75
2023/12/24 08:02:04;;;;;;;2.53;2.33;;;;;;;;;;5059189;28;20089;-75
2023/12/24 08:04:31;;;;;;;3.17;2.33;;;;;;;;;;5077020;28;20078;-75
2023/12/24 08:06:56;;;;;;;2.65;2.45;;;;;;;;;;5058807;28;20029;-75
2023/12/24 08:09:22;;;;;;;3.38;3.05;;;;;;;;;;5076904;28;20368;-71
2023/12/24 08:11:47;;;;;;;3.45;3.17;;;;;;;;;;5076935;28;20549;-71
2023/12/24 08:14:12;;;;;;;3.97;3.70;;;;;;;;;;5077071;28;20039;-73
2023/12/24 08:16:38;;;;;;;5.13;4.72;;;;;;;;;;5058671;28;20081;-73
2023/12/24 08:19:03;;;;;;;7.30;6.60;;;;;;;;;;5059082;28;20387;-77
2023/12/24 08:21:29;;;;;;;6.07;5.57;;;;;;;;;;5077045;28;20032;-74
2023/12/24 08:23:55;;;;;;;6.28;5.78;;;;;;;;;;5076996;28;20029;-74
2023/12/24 08:26:21;;;;;;;17.67;13.00;;;;;;;;;;5058931;28;20455;-74
2023/12/24 08:28:46;;;;;;;22.77;15.30;;;;;;;;;;5058432;28;20035;-73
2023/12/24 08:31:13;;;;;;;22.20;13.70;;;;;;;;;;5076779;28;20123;-66
2023/12/24 08:33:38;;;;;;;19.38;13.45;;;;;;;;;;5076574;28;20055;-75
2023/12/24 08:36:04;;;;;;;15.90;11.07;;;;;;;;;;5058792;28;20032;-75
2023/12/24 08:38:31;;;;;;;16.45;10.65;;;;;;;;;;5076609;28;20024;-75
2023/12/24 08:40:57;;;;;;;26.08;14.98;;;;;;;;;;5058466;28;20056;-75
2023/12/24 08:43:24;;;;;;;30.20;19.73;;;;;;;;;;5076462;28;20021;-75
2023/12/24 08:45:50;;;;;;;27.35;17.05;;;;;;;;;;5076621;28;20020;-75
2023/12/24 08:48:16;;;;;;;28.67;18.00;;;;;;;;;;5076584;28;20035;-75
2023/12/24 08:50:42;;;;;;;47.22;28.70;;;;;;;;;;5058506;28;20047;-75
2023/12/24 08:53:08;;;;;;;30.50;21.88;;;;;;;;;;5076281;28;20454;-75
2023/12/24 08:55:34;;;;;;;27.80;19.38;;;;;;;;;;5075498;28;20020;-75
2023/12/24 08:58:00;;;;;;;30.98;23.75;;;;;;;;;;5057795;28;20123;-75
2023/12/24 09:00:25;;;;;;;21.90;17.85;;;;;;;;;;5075870;28;20124;-76
2023/12/24 09:02:51;;;;;;;12.05;9.50;;;;;;;;;;5076002;28;20120;-75
2023/12/24 09:05:19;;;;;;;7.18;6.45;;;;;;;;;;5064036;28;20032;-76
2023/12/24 09:07:45;;;;;;;5.50;4.97;;;;;;;;;;5075888;28;20027;-76
2023/12/24 09:10:11;;;;;;;9.95;7.75;;;;;;;;;;5057764;28;20028;-76
2023/12/24 09:12:36;;;;;;;12.30;8.10;;;;;;;;;;5075759;28;20028;-76
2023/12/24 09:15:02;;;;;;;10.65;6.80;;;;;;;;;;5075615;28;20078;-77
2023/12/24 09:17:28;;;;;;;11.63;7.85;;;;;;;;;;5057692;28;20060;-76
2023/12/24 09:19:53;;;;;;;12.27;8.57;;;;;;;;;;5057490;28;20071;-76
2023/12/24 09:22:19;;;;;;;11.98;8.68;;;;;;;;;;5057244;28;20075;-77
2023/12/24 09:24:45;;;;;;;25.92;13.25;;;;;;;;;;5075154;28;20025;-76
2023/12/24 09:27:10;;;;;;;24.30;13.80;;;;;;;;;;5066718;28;20394;-76
2023/12/24 09:29:36;;;;;;;20.40;12.48;;;;;;;;;;5054849;28;20041;-76
2023/12/24 09:32:01;;;;;;;50.63;22.60;;;;;;;;;;5055297;28;20530;-70
2023/12/24 09:34:27;;;;;;;36.58;21.58;;;;;;;;;;5055191;28;20021;-70
2023/12/24 09:36:52;;;;;;;16.98;12.25;;;;;;;;;;5053885;28;20037;-70
2023/12/24 09:39:18;;;;;;;11.63;8.55;;;;;;;;;;5054022;28;20025;-70
2023/12/24 09:41:44;;;;;;;9.00;6.82;;;;;;;;;;5052700;28;20065;-69
2023/12/24 09:44:09;;;;;;;8.95;6.35;;;;;;;;;;5054100;28;20048;-70
2023/12/24 09:46:34;;;;;;;14.55;8.82;;;;;;;;;;5054054;28;20451;-70
2023/12/24 09:49:00;;;;;;;12.48;8.30;;;;;;;;;;5054140;28;20025;-70
2023/12/24 09:51:26;;;;;;;16.55;10.52;;;;;;;;;;5053905;28;20079;-69
2023/12/24 09:53:52;;;;;;;27.98;15.27;;;;;;;;;;5053338;28;20494;-70
2023/12/24 09:56:18;;;;;;;30.20;17.23;;;;;;;;;;5054603;28;20112;-74
2023/12/24 09:58:45;;;;;;;20.33;12.48;;;;;;;;;;5054118;28;20096;-73
2023/12/24 10:01:10;;;;;;;36.25;19.25;;;;;;;;;;5073941;28;20132;-73
2023/12/24 10:03:41;;;;;;;30.40;15.70;;;;;;;;;;5074429;28;20107;-73
2023/12/24 10:06:07;;;;;;;19.25;10.57;;;;;;;;;;5073856;28;20067;-73
2023/12/24 10:08:33;;;;;;;22.90;14.63;;;;;;;;;;5074933;28;20024;-73
2023/12/24 10:11:11;;;;;;;24.90;14.82;;;;;;;;;;5075012;28;20036;-73
2023/12/24 10:13:39;;;;;;;21.15;11.85;;;;;;;;;;5074774;28;20037;-74
2023/12/24 10:16:05;;;;;;;23.17;12.77;;;;;;;;;;5074536;28;20040;-73
2023/12/24 10:18:32;;;;;;;17.20;9.40;;;;;;;;;;5074485;28;20027;-73
2023/12/24 10:21:06;;;;;;;17.63;9.27;;;;;;;;;;5074400;28;20119;-70
2023/12/24 10:23:34;;;;;;;25.50;13.85;;;;;;;;;;5056540;28;20413;-77
2023/12/24 10:26:03;;;;;;;39.47;15.02;;;;;;;;;;5073809;28;20063;-77
2023/12/24 10:28:32;;;;;;;61.70;24.52;;;;;;;;;;5056594;28;20662;-77
2023/12/24 10:31:10;;;;;;;71.70;32.47;;;;;;;;;;5074784;28;20050;-77
2023/12/24 10:33:37;;;;;;;36.60;20.70;;;;;;;;;;5074738;28;20442;-77
2023/12/24 10:36:02;;;;;;;36.83;21.10;;;;;;;;;;5056750;28;20466;-77
2023/12/24 10:38:28;;;;;;;14.02;9.52;;;;;;;;;;5056198;28;20031;-71
2023/12/24 10:40:53;;;;;;;5.65;5.00;;;;;;;;;;5074151;28;20481;-70
2023/12/24 10:43:19;;;;;;;10.93;6.80;;;;;;;;;;5055886;28;20032;-72
2023/12/24 10:45:45;;;;;;;7.03;5.72;;;;;;;;;;5073521;28;20017;-65
2023/12/24 10:48:11;;;;;;;9.65;6.18;;;;;;;;;;5073654;28;20025;-67
2023/12/24 10:50:36;;;;;;;6.57;4.85;;;;;;;;;;5074137;28;20036;-72
2023/12/24 10:53:01;;;;;;;5.30;4.78;;;;;;;;;;5073971;28;20432;-72
2023/12/24 10:55:29;;;;;;;7.43;6.20;;;;;;;;;;5074383;28;20098;-73
2023/12/24 10:58:18;;;;;;;6.40;5.85;;;;;;;;;;5055429;28;20482;-72
2023/12/24 11:00:49;;;;;;;6.75;5.93;;;;;;;;;;5072723;28;20398;-73
2023/12/24 11:03:37;;;;;;;8.23;6.80;;;;;;;;;;5055124;28;20039;-64
2023/12/24 11:06:03;;;;;;;7.10;6.18;;;;;;;;;;5073500;28;20022;-62
2023/12/24 11:08:29;;;;;;;6.57;5.90;;;;;;;;;;5073310;28;20017;-62
2023/12/24 11:10:55;;;;;;;7.00;5.63;;;;;;;;;;5074156;28;20124;-66
2023/12/24 11:13:32;;;;;;;5.90;4.78;;;;;;;;;;5074273;28;20103;-65
2023/12/24 11:15:59;;;;;;;8.05;6.07;;;;;;;;;;5056022;28;20032;-64
2023/12/24 11:18:40;;;;;;;9.73;6.32;;;;;;;;;;5073932;28;20479;-63
2023/12/24 11:21:06;;;;;;;8.52;6.30;;;;;;;;;;5074056;28;20036;-63
2023/12/24 11:23:31;;;;;;;9.73;6.97;;;;;;;;;;5073984;28;20021;-61
2023/12/24 11:25:57;;;;;;;6.97;6.28;;;;;;;;;;5056097;28;20462;-71
2023/12/24 11:28:23;;;;;;;8.20;6.82;;;;;;;;;;5073889;28;20462;-71
2023/12/24 11:30:51;;;;;;;8.98;6.93;;;;;;;;;;5056247;28;20086;-71
2023/12/24 11:33:29;;;;;;;7.80;6.55;;;;;;;;;;5073887;28;20047;-72
2023/12/24 11:35:56;;;;;;;10.30;7.18;;;;;;;;;;5073951;28;20414;-71
2023/12/24 11:38:33;;;;;;;9.98;7.78;;;;;;;;;;5073758;28;20443;-64
2023/12/24 11:41:15;;;;;;;9.32;7.43;;;;;;;;;;5055286;28;20647;-69
2023/12/24 11:43:42;;;;;;;9.85;7.55;;;;;;;;;;5072755;28;20475;-70
2023/12/24 11:46:08;;;;;;;12.65;8.95;;;;;;;;;;5073564;28;20025;-70
2023/12/24 11:48:34;;;;;;;14.27;9.02;;;;;;;;;;5055694;28;20375;-70
2023/12/24 11:51:06;;;;;;;11.70;8.15;;;;;;;;;;5073002;28;20028;-71
2023/12/24 11:53:33;;;;;;;15.70;9.45;;;;;;;;;;5073049;28;20106;-71
2023/12/24 11:56:11;;;;;;;15.85;10.05;;;;;;;;;;5073320;28;20100;-65
2023/12/24 11:58:40;;;;;;;12.73;8.55;;;;;;;;;;5071995;28;20060;-64
2023/12/24 12:01:06;;;;;;;11.07;7.78;;;;;;;;;;5071704;28;20051;-63
2023/12/24 12:03:33;;;;;;;13.00;7.90;;;;;;;;;;5037126;28;20033;-64
2023/12/24 12:05:58;;;;;;;12.90;9.75;;;;;;;;;;5053815;28;20070;-63
2023/12/24 12:08:26;;;;;;;14.02;10.25;;;;;;;;;;5072119;28;20581;-63
2023/12/24 12:10:52;;;;;;;19.40;14.60;;;;;;;;;;5071670;28;20063;-65
2023/12/24 12:13:17;;;;;;;21.17;14.52;;;;;;;;;;5054766;28;20036;-66
2023/12/24 12:15:43;;;;;;;19.73;13.88;;;;;;;;;;5072783;28;20162;-66
2023/12/24 12:18:08;;;;;;;15.75;12.40;;;;;;;;;;5072705;28;20037;-66
2023/12/24 12:20:34;;;;;;;13.93;10.75;;;;;;;;;;5038170;28;20043;-66
2023/12/24 12:22:59;;;;;;;13.80;10.57;;;;;;;;;;5054521;28;20106;-65
2023/12/24 12:25:25;;;;;;;14.32;10.07;;;;;;;;;;5072369;28;20059;-65
2023/12/24 12:27:51;;;;;;;14.45;11.25;;;;;;;;;;5071994;28;20033;-66
2023/12/24 12:30:19;;;;;;;13.55;10.05;;;;;;;;;;5074334;28;20194;-66
2023/12/24 12:32:44;;;;;;;14.18;10.32;;;;;;;;;;5075812;28;20028;-69
2023/12/24 12:35:10;;;;;;;13.82;10.07;;;;;;;;;;5074799;28;20382;-71
2023/12/24 12:37:36;;;;;;;11.75;9.77;;;;;;;;;;5075446;28;20028;-71
2023/12/24 12:40:01;;;;;;;14.30;11.27;;;;;;;;;;5075607;28;20332;-71
2023/12/24 12:42:28;;;;;;;14.95;11.52;;;;;;;;;;5075913;28;20039;-72
2023/12/24 12:44:54;;;;;;;14.68;9.48;;;;;;;;;;5058333;28;20063;-65
2023/12/24 12:47:19;;;;;;;11.25;9.57;;;;;;;;;;5041493;28;20415;-63
2023/12/24 12:49:45;;;;;;;17.00;12.13;;;;;;;;;;5058078;28;20505;-64
2023/12/24 12:52:11;;;;;;;16.00;12.38;;;;;;;;;;5057719;28;20028;-75
2023/12/24 12:54:37;;;;;;;13.30;9.05;;;;;;;;;;5075631;28;20047;-74
2023/12/24 12:57:02;;;;;;;10.88;9.43;;;;;;;;;;5074794;28;20024;-76
2023/12/24 12:59:28;;;;;;;15.00;10.15;;;;;;;;;;5075340;28;20471;-75
2023/12/24 13:01:55;;;;;;;13.73;10.90;;;;;;;;;;5057438;28;20032;-63
2023/12/24 13:04:22;;;;;;;18.77;12.60;;;;;;;;;;5074326;28;20078;-74
2023/12/24 13:06:48;;;;;;;18.95;12.55;;;;;;;;;;5041043;28;20509;-75
2023/12/24 13:09:15;;;;;;;18.50;12.60;;;;;;;;;;5075488;28;20025;-74
2023/12/24 13:11:40;;;;;;;17.00;12.30;;;;;;;;;;5057598;28;20420;-74
2023/12/24 13:14:06;;;;;;;15.45;11.20;;;;;;;;;;5075290;28;20099;-74
2023/12/24 13:16:33;;;;;;;13.70;10.10;;;;;;;;;;5074961;28;20398;-74
2023/12/24 13:19:22;;;;;;;13.10;9.75;;;;;;;;;;5075187;28;20451;-75
2023/12/24 13:21:47;;;;;;;13.43;10.38;;;;;;;;;;5057242;28;20040;-75
2023/12/24 13:24:13;;;;;;;12.50;9.48;;;;;;;;;;5074589;28;20514;-75
2023/12/24 13:26:38;;;;;;;15.00;9.27;;;;;;;;;;5074162;28;20024;-75
2023/12/24 13:29:04;;;;;;;13.45;11.73;;;;;;;;;;5075142;28;20375;-74
2023/12/24 13:31:30;;;;;;;14.50;11.23;;;;;;;;;;5075434;28;20012;-74
2023/12/24 13:33:55;;;;;;;11.60;8.38;;;;;;;;;;5075493;28;20024;-74
2023/12/24 13:36:20;;;;;;;8.93;7.88;;;;;;;;;;5075414;28;20052;-74
2023/12/24 13:38:46;;;;;;;7.28;6.50;;;;;;;;;;5074773;28;20179;-74
2023/12/24 13:41:13;;;;;;;7.35;6.38;;;;;;;;;;5074989;28;20060;-75
2023/12/24 13:43:39;;;;;;;6.93;5.63;;;;;;;;;;5075069;28;20063;-76
2023/12/24 13:46:05;;;;;;;4.95;4.45;;;;;;;;;;5056823;28;20055;-75
2023/12/24 13:48:30;;;;;;;5.28;4.28;;;;;;;;;;5075175;28;20060;-75
2023/12/24 13:50:56;;;;;;;4.43;4.03;;;;;;;;;;5057260;28;20044;-64
2023/12/24 13:53:21;;;;;;;4.78;4.35;;;;;;;;;;5075646;28;20490;-64
2023/12/24 13:55:46;;;;;;;6.03;4.07;;;;;;;;;;5075149;28;20037;-64
2023/12/24 13:58:12;;;;;;;4.45;3.92;;;;;;;;;;5057387;28;20107;-68
2023/12/24 14:00:37;;;;;;;4.68;3.65;;;;;;;;;;5075249;28;20044;-69
2023/12/24 14:03:03;;;;;;;3.80;3.35;;;;;;;;;;5075111;28;20043;-68
2023/12/24 14:05:28;;;;;;;4.15;3.25;;;;;;;;;;5074966;28;20033;-69
2023/12/24 14:07:55;;;;;;;3.90;3.45;;;;;;;;;;5074954;28;20029;-68
2023/12/24 14:10:21;;;;;;;3.47;3.13;;;;;;;;;;5056758;28;20060;-69
2023/12/24 14:12:46;;;;;;;3.53;3.22;;;;;;;;;;5074342;28;20059;-69
2023/12/24 14:15:12;;;;;;;3.25;2.92;;;;;;;;;;5074212;28;20461;-73
2023/12/24 14:17:37;;;;;;;3.75;3.20;;;;;;;;;;5074100;28;20025;-74
2023/12/24 14:20:09;;;;;;;3.17;2.88;;;;;;;;;;5055899;28;20090;-70
2023/12/24 14:22:34;;;;;;;3.10;2.65;;;;;;;;;;5056583;28;20459;-74
2023/12/24 14:25:00;;;;;;;3.03;2.83;;;;;;;;;;5074662;28;20054;-74
2023/12/24 14:27:25;;;;;;;3.13;2.60;;;;;;;;;;5074771;28;20032;-63
2023/12/24 14:29:54;;;;;;;7.22;3.63;;;;;;;;;;5074792;28;20032;-64
2023/12/24 14:32:19;;;;;;;11.55;5.05;;;;;;;;;;5056566;28;20024;-64
2023/12/24 14:34:45;;;;;;;12.90;4.80;;;;;;;;;;5072732;28;20547;-63
2023/12/24 14:37:10;;;;;;;11.95;5.35;;;;;;;;;;5072907;28;20032;-63